createdAt,value
2023-03-21T00:00:07.233Z,4.20
2023-03-21T00:01:06.507Z,4.80
2023-03-21T00:02:06.883Z,5.20
2023-03-21T00:03:07.096Z,5.40
2023-03-21T00:04:07.514Z,4.50
2023-03-21T00:05:15.461Z,4.30
2023-03-21T00:06:09.065Z,4.30
2023-03-21T00:07:08.375Z,4.80
2023-03-21T00:08:08.708Z,4.60
2023-03-21T00:09:09.053Z,4.40
2023-03-21T00:10:16.684Z,4.70
2023-03-21T00:11:10.588Z,5.50
2023-03-21T00:12:09.863Z,6.60
2023-03-21T00:13:10.098Z,4.80
2023-03-21T00:14:10.459Z,5.40
2023-03-21T00:15:10.725Z,4.50
2023-03-21T00:17:12.351Z,4.90
2023-03-21T00:18:11.625Z,5.30
2023-03-21T00:19:11.961Z,4.90
2023-03-21T00:20:12.313Z,4.80
2023-03-21T00:22:13.983Z,4.30
2023-03-21T00:23:13.262Z,4.60
2023-03-21T00:24:13.602Z,5.60
2023-03-21T00:25:13.926Z,4.10
2023-03-21T00:26:14.242Z,4.90
2023-03-21T00:28:15.912Z,4.20
2023-03-21T00:29:15.202Z,4.20
2023-03-21T00:30:15.440Z,4.70
2023-03-21T00:31:15.755Z,4.80
2023-03-21T00:32:16.089Z,4.00
2023-03-21T00:33:22.624Z,6.80
2023-03-21T00:34:22.728Z,4.70
2023-03-21T00:35:53.133Z,4.20
2023-03-21T00:36:18.392Z,4.70
2023-03-21T00:37:17.672Z,6.20
2023-03-21T00:38:18.034Z,5.10
2023-03-21T00:39:18.273Z,4.20
2023-03-21T00:40:27.896Z,4.20
2023-03-21T00:41:35.073Z,4.30
2023-03-21T00:42:20.036Z,5.40
2023-03-21T00:43:19.345Z,5.10
2023-03-21T00:44:19.584Z,5.30
2023-03-21T00:45:19.818Z,5.50
2023-03-21T00:46:21.733Z,5.00
2023-03-21T00:47:20.473Z,4.40
2023-03-21T00:48:20.704Z,5.50
2023-03-21T00:49:21.006Z,4.30
2023-03-21T00:50:21.247Z,5.50
2023-03-21T00:51:21.598Z,4.80
2023-03-21T00:52:34.236Z,4.50
2023-03-21T00:53:23.117Z,3.80
2023-03-21T00:54:22.410Z,4.40
2023-03-21T00:55:22.742Z,4.60
2023-03-21T00:56:23.069Z,4.70
2023-03-21T00:57:37.601Z,4.70
2023-03-21T00:58:24.754Z,4.80
2023-03-21T00:59:24.011Z,5.50
2023-03-21T01:00:24.355Z,4.10
2023-03-21T01:01:24.758Z,5.60
2023-03-21T01:02:25.023Z,4.80
2023-03-21T01:03:25.694Z,5.50
2023-03-21T01:04:25.489Z,4.90
2023-03-21T01:05:25.839Z,4.50
2023-03-21T01:06:26.159Z,4.80
2023-03-21T01:07:26.481Z,4.30
2023-03-21T01:08:33.001Z,4.20
2023-03-21T01:09:28.128Z,4.70
2023-03-21T01:10:27.390Z,4.20
2023-03-21T01:11:27.731Z,4.70
2023-03-21T01:12:28.059Z,4.30
2023-03-21T01:13:28.401Z,4.30
2023-03-21T01:14:28.757Z,5.40
2023-03-21T01:15:28.971Z,4.40
2023-03-21T01:16:29.340Z,5.10
2023-03-21T01:17:29.532Z,4.70
2023-03-21T01:18:29.862Z,4.70
2023-03-21T01:19:44.791Z,5.30
2023-03-21T01:20:31.535Z,4.80
2023-03-21T01:21:30.804Z,4.50
2023-03-21T01:22:31.153Z,4.60
2023-03-21T01:23:31.495Z,3.60
2023-03-21T01:24:32.456Z,4.90
2023-03-21T01:25:32.172Z,4.20
2023-03-21T01:26:32.514Z,4.20
2023-03-21T01:27:32.868Z,5.10
2023-03-21T01:28:33.072Z,3.80
2023-03-21T01:29:33.423Z,4.60
2023-03-21T01:30:36.923Z,5.20
2023-03-21T01:31:35.112Z,4.20
2023-03-21T01:32:34.372Z,5.10
2023-03-21T01:33:34.715Z,4.20
2023-03-21T01:34:35.058Z,4.30
2023-03-21T01:35:48.039Z,3.90
2023-03-21T01:36:36.735Z,4.90
2023-03-21T01:37:36.004Z,5.00
2023-03-21T01:38:36.341Z,4.90
2023-03-21T01:39:36.684Z,4.80
2023-03-21T01:40:37.017Z,4.90
2023-03-21T01:41:43.025Z,5.60
2023-03-21T01:42:38.680Z,5.00
2023-03-21T01:43:37.972Z,5.80
2023-03-21T01:44:38.296Z,5.20
2023-03-21T01:45:38.990Z,5.90
2023-03-21T01:47:09.365Z,5.20
2023-03-21T01:47:40.338Z,5.20
2023-03-21T01:48:39.544Z,5.50
2023-03-21T01:49:39.908Z,5.20
2023-03-21T01:50:40.247Z,5.70
2023-03-21T01:51:40.440Z,5.20
2023-03-21T01:52:40.898Z,5.20
2023-03-21T01:53:41.101Z,5.30
2023-03-21T01:54:41.461Z,5.00
2023-03-21T01:55:41.670Z,5.10
2023-03-21T01:56:42.060Z,6.00
2023-03-21T01:57:51.875Z,5.70
2023-03-21T01:58:43.552Z,5.80
2023-03-21T01:59:42.830Z,6.50
2023-03-21T02:00:43.070Z,5.80
2023-03-21T02:01:43.411Z,5.70
2023-03-21T02:02:43.625Z,5.50
2023-03-21T02:03:43.974Z,4.70
2023-03-21T02:04:44.282Z,5.40
2023-03-21T02:05:44.621Z,5.60
2023-03-21T02:06:44.962Z,5.30
2023-03-21T02:07:45.282Z,5.40
2023-03-21T02:08:45.613Z,6.00
2023-03-21T02:09:45.969Z,5.70
2023-03-21T02:10:46.169Z,5.50
2023-03-21T02:11:46.507Z,5.40
2023-03-21T02:12:46.844Z,5.40
2023-03-21T02:13:48.761Z,5.00
2023-03-21T02:14:47.445Z,5.10
2023-03-21T02:15:47.637Z,5.70
2023-03-21T02:16:48.001Z,5.40
2023-03-21T02:17:48.216Z,5.50
2023-03-21T02:18:48.547Z,5.40
2023-03-21T02:19:53.444Z,4.80
2023-03-21T02:20:49.204Z,5.40
2023-03-21T02:21:49.528Z,5.50
2023-03-21T02:22:49.858Z,4.80
2023-03-21T02:23:50.213Z,5.40
2023-03-21T02:24:59.640Z,5.70
2023-03-21T02:25:51.878Z,5.20
2023-03-21T02:27:01.393Z,5.10
2023-03-21T02:27:52.428Z,5.30
2023-03-21T02:28:51.690Z,5.20
2023-03-21T02:29:52.040Z,4.80
2023-03-21T02:30:52.778Z,4.90
2023-03-21T02:31:52.756Z,5.90
2023-03-21T02:32:52.989Z,4.90
2023-03-21T02:33:53.241Z,5.50
2023-03-21T02:34:53.453Z,5.40
2023-03-21T02:35:56.834Z,5.30
2023-03-21T02:36:54.092Z,5.40
2023-03-21T02:38:00.142Z,4.80
2023-03-21T02:38:55.750Z,5.20
2023-03-21T02:39:55.054Z,5.30
2023-03-21T02:40:55.238Z,5.80
2023-03-21T02:41:55.563Z,5.70
2023-03-21T02:43:00.847Z,5.10
2023-03-21T02:43:57.202Z,5.40
2023-03-21T02:44:56.509Z,5.20
2023-03-21T02:45:56.855Z,5.50
2023-03-21T02:47:05.460Z,5.40
2023-03-21T02:47:58.385Z,4.70
2023-03-21T02:48:57.750Z,5.40
2023-03-21T02:49:58.008Z,6.70
2023-03-21T02:50:58.217Z,5.20
2023-03-21T02:52:08.590Z,5.30
2023-03-21T02:52:59.849Z,4.80
2023-03-21T02:54:23.692Z,4.80
2023-03-21T02:55:00.427Z,4.80
2023-03-21T02:55:59.696Z,5.20
2023-03-21T02:57:00.011Z,5.30
2023-03-21T02:58:11.824Z,4.60
2023-03-21T02:59:01.629Z,4.70
2023-03-21T03:00:10.742Z,5.00
2023-03-21T03:01:02.230Z,4.70
2023-03-21T03:02:01.488Z,4.60
2023-03-21T03:03:09.245Z,5.30
2023-03-21T03:04:03.166Z,5.30
2023-03-21T03:05:06.503Z,5.00
2023-03-21T03:06:03.766Z,5.40
2023-03-21T03:07:03.009Z,5.00
2023-03-21T03:08:03.338Z,5.30
2023-03-21T03:09:03.663Z,5.20
2023-03-21T03:10:04.044Z,6.30
2023-03-21T03:11:04.253Z,5.20
2023-03-21T03:12:04.588Z,4.80
2023-03-21T03:13:04.912Z,4.40
2023-03-21T03:14:25.148Z,5.00
2023-03-21T03:15:06.545Z,4.50
2023-03-21T03:16:05.849Z,12.20
2023-03-21T03:17:06.185Z,5.30
2023-03-21T03:18:06.485Z,5.20
2023-03-21T03:19:06.809Z,4.70
2023-03-21T03:20:15.562Z,4.50
2023-03-21T03:21:08.471Z,5.20
2023-03-21T03:22:07.758Z,4.80
2023-03-21T03:23:08.054Z,4.60
2023-03-21T03:24:08.409Z,4.70
2023-03-21T03:25:19.754Z,5.30
2023-03-21T03:26:10.051Z,5.00
2023-03-21T03:27:09.298Z,4.70
2023-03-21T03:28:09.627Z,5.10
2023-03-21T03:29:09.945Z,5.10
2023-03-21T03:30:10.341Z,6.10
2023-03-21T03:31:11.138Z,6.80
2023-03-21T03:32:10.821Z,5.10
2023-03-21T03:33:11.058Z,4.80
2023-03-21T03:34:11.396Z,5.90
2023-03-21T03:35:11.728Z,4.60
2023-03-21T03:36:21.531Z,5.00
2023-03-21T03:37:13.366Z,4.80
2023-03-21T03:38:12.619Z,5.20
2023-03-21T03:39:12.954Z,5.20
2023-03-21T03:40:13.282Z,4.40
2023-03-21T03:41:13.600Z,5.20
2023-03-21T03:42:27.225Z,5.20
2023-03-21T03:43:15.254Z,4.30
2023-03-21T03:44:14.522Z,4.70
2023-03-21T03:45:14.857Z,4.50
2023-03-21T03:46:15.215Z,4.80
2023-03-21T03:47:29.911Z,4.70
2023-03-21T03:48:16.882Z,4.60
2023-03-21T03:49:16.134Z,4.70
2023-03-21T03:50:16.482Z,4.60
2023-03-21T03:51:16.695Z,4.40
2023-03-21T03:52:17.008Z,5.80
2023-03-21T03:53:18.668Z,4.90
2023-03-21T03:54:17.622Z,4.80
2023-03-21T03:55:18.061Z,5.10
2023-03-21T03:56:18.284Z,4.50
2023-03-21T03:57:18.621Z,4.80
2023-03-21T03:58:23.535Z,5.70
2023-03-21T03:59:20.285Z,5.30
2023-03-21T04:00:19.576Z,4.70
2023-03-21T04:01:19.902Z,5.20
2023-03-21T04:02:20.449Z,4.50
2023-03-21T04:03:20.578Z,5.20
2023-03-21T04:04:20.842Z,4.00
2023-03-21T04:05:21.153Z,4.40
2023-03-21T04:06:21.305Z,4.80
2023-03-21T04:07:21.694Z,4.30
2023-03-21T04:08:21.886Z,4.60
2023-03-21T04:09:31.492Z,4.90
2023-03-21T04:10:23.547Z,5.30
2023-03-21T04:11:22.807Z,5.20
2023-03-21T04:12:23.146Z,5.00
2023-03-21T04:13:23.484Z,5.40
2023-03-21T04:14:24.566Z,4.10
2023-03-21T04:15:24.056Z,4.40
2023-03-21T04:16:24.430Z,4.30
2023-03-21T04:17:24.683Z,4.50
2023-03-21T04:18:24.979Z,4.20
2023-03-21T04:19:25.300Z,5.30
2023-03-21T04:20:36.149Z,4.70
2023-03-21T04:21:26.964Z,4.20
2023-03-21T04:22:26.214Z,4.70
2023-03-21T04:23:26.570Z,3.80
2023-03-21T04:24:26.875Z,4.10
2023-03-21T04:25:33.345Z,4.20
2023-03-21T04:26:28.537Z,5.00
2023-03-21T04:27:27.824Z,4.20
2023-03-21T04:28:28.150Z,4.20
2023-03-21T04:29:28.487Z,5.10
2023-03-21T04:30:28.846Z,4.40
2023-03-21T04:31:29.113Z,3.90
2023-03-21T04:32:29.317Z,3.60
2023-03-21T04:33:29.636Z,4.70
2023-03-21T04:34:29.960Z,4.30
2023-03-21T04:35:30.321Z,4.30
2023-03-21T04:36:30.633Z,6.30
2023-03-21T04:37:30.998Z,5.40
2023-03-21T04:38:31.315Z,4.40
2023-03-21T04:39:31.639Z,4.90
2023-03-21T04:40:31.977Z,5.10
2023-03-21T04:41:32.327Z,5.30
2023-03-21T04:42:32.656Z,4.90
2023-03-21T04:43:32.967Z,4.40
2023-03-21T04:44:33.318Z,4.50
2023-03-21T04:45:33.694Z,4.70
2023-03-21T04:46:33.912Z,6.20
2023-03-21T04:47:34.236Z,4.20
2023-03-21T04:48:34.509Z,4.30
2023-03-21T04:49:34.838Z,4.90
2023-03-21T04:50:35.496Z,4.10
2023-03-21T04:51:35.460Z,4.00
2023-03-21T04:52:35.812Z,4.30
2023-03-21T04:53:36.158Z,5.10
2023-03-21T04:54:36.491Z,4.90
2023-03-21T04:55:37.052Z,4.00
2023-03-21T04:56:37.069Z,4.20
2023-03-21T04:57:37.409Z,4.30
2023-03-21T04:58:37.741Z,5.10
2023-03-21T04:59:38.099Z,5.10
2023-03-21T05:00:38.336Z,5.50
2023-03-21T05:01:38.543Z,6.70
2023-03-21T05:02:38.877Z,4.60
2023-03-21T05:03:39.253Z,4.90
2023-03-21T05:04:39.572Z,5.50
2023-03-21T05:05:40.061Z,6.50
2023-03-21T05:06:40.274Z,4.80
2023-03-21T05:07:40.577Z,4.50
2023-03-21T05:08:40.931Z,5.20
2023-03-21T05:09:41.181Z,6.10
2023-03-21T05:10:41.394Z,5.20
2023-03-21T05:11:41.616Z,5.30
2023-03-21T05:12:41.851Z,4.80
2023-03-21T05:13:42.090Z,4.60
2023-03-21T05:14:42.321Z,4.60
2023-03-21T05:15:42.575Z,4.70
2023-03-21T05:16:42.913Z,6.20
2023-03-21T05:17:43.145Z,4.90
2023-03-21T05:18:43.474Z,4.60
2023-03-21T05:19:43.836Z,5.00
2023-03-21T05:20:44.079Z,4.70
2023-03-21T05:21:44.329Z,5.10
2023-03-21T05:22:44.539Z,4.80
2023-03-21T05:23:44.786Z,5.50
2023-03-21T05:24:45.015Z,5.10
2023-03-21T05:25:45.272Z,5.00
2023-03-21T05:26:45.512Z,7.10
2023-03-21T05:27:45.730Z,5.80
2023-03-21T05:28:46.075Z,4.80
2023-03-21T05:29:46.315Z,6.50
2023-03-21T05:30:46.682Z,6.90
2023-03-21T05:31:47.043Z,5.00
2023-03-21T05:32:47.215Z,5.10
2023-03-21T05:33:47.456Z,5.30
2023-03-21T05:34:47.723Z,7.00
2023-03-21T05:35:47.981Z,5.40
2023-03-21T05:36:48.228Z,5.20
2023-03-21T05:37:48.447Z,5.10
2023-03-21T05:38:48.794Z,5.90
2023-03-21T05:39:49.147Z,5.60
2023-03-21T05:40:49.430Z,6.50
2023-03-21T05:41:49.733Z,5.00
2023-03-21T05:42:50.077Z,5.20
2023-03-21T05:43:50.339Z,5.00
2023-03-21T05:44:50.580Z,5.30
2023-03-21T05:45:50.869Z,6.20
2023-03-21T05:46:51.164Z,7.90
2023-03-21T05:47:51.465Z,5.30
2023-03-21T05:48:51.705Z,6.30
2023-03-21T05:49:52.011Z,6.20
2023-03-21T05:50:52.290Z,5.30
2023-03-21T05:51:52.525Z,7.00
2023-03-21T05:52:52.875Z,5.60
2023-03-21T05:53:53.135Z,5.40
2023-03-21T05:54:53.362Z,5.70
2023-03-21T05:55:53.612Z,6.30
2023-03-21T05:56:53.864Z,7.10
2023-03-21T05:57:54.176Z,7.10
2023-03-21T05:58:54.424Z,7.90
2023-03-21T05:59:54.671Z,6.80
2023-03-21T06:00:54.917Z,6.40
2023-03-21T06:01:55.142Z,5.90
2023-03-21T06:02:55.418Z,6.40
2023-03-21T06:03:55.744Z,6.30
2023-03-21T06:04:55.964Z,6.50
2023-03-21T06:05:56.326Z,6.70
2023-03-21T06:06:56.552Z,6.50
2023-03-21T06:07:56.914Z,6.40
2023-03-21T06:08:57.172Z,6.10
2023-03-21T06:09:57.418Z,6.30
2023-03-21T06:10:57.688Z,6.00
2023-03-21T06:11:57.966Z,6.00
2023-03-21T06:12:58.226Z,6.70
2023-03-21T06:13:58.489Z,6.50
2023-03-21T06:14:58.741Z,6.80
2023-03-21T06:15:59.069Z,7.50
2023-03-21T06:16:59.330Z,6.90
2023-03-21T06:17:59.581Z,7.20
2023-03-21T06:18:59.833Z,7.30
2023-03-21T06:20:00.123Z,6.90
2023-03-21T06:21:00.442Z,6.70
2023-03-21T06:22:00.692Z,9.30
2023-03-21T06:23:00.940Z,6.90
2023-03-21T06:24:01.181Z,6.30
2023-03-21T06:25:01.461Z,6.60
2023-03-21T06:26:01.736Z,7.00
2023-03-21T06:27:04.022Z,5.80
2023-03-21T06:28:02.322Z,6.20
2023-03-21T06:29:02.564Z,6.60
2023-03-21T06:30:02.832Z,6.60
2023-03-21T06:31:03.240Z,5.40
2023-03-21T06:32:03.426Z,5.50
2023-03-21T06:33:03.699Z,6.30
2023-03-21T06:34:03.966Z,5.10
2023-03-21T06:35:04.262Z,5.90
2023-03-21T06:36:04.564Z,6.00
2023-03-21T06:37:04.810Z,6.50
2023-03-21T06:38:05.057Z,6.90
2023-03-21T06:39:05.303Z,11.00
2023-03-21T06:40:05.564Z,6.50
2023-03-21T06:41:05.827Z,8.00
2023-03-21T06:42:06.108Z,8.00
2023-03-21T06:43:06.385Z,7.90
2023-03-21T06:44:06.655Z,7.40
2023-03-21T06:45:06.895Z,7.40
2023-03-21T06:46:07.206Z,8.10
2023-03-21T06:47:07.503Z,8.20
2023-03-21T06:48:09.363Z,8.10
2023-03-21T06:49:08.024Z,7.50
2023-03-21T06:50:08.275Z,8.00
2023-03-21T06:51:08.551Z,8.90
2023-03-21T06:52:08.963Z,8.60
2023-03-21T06:53:09.067Z,8.90
2023-03-21T06:54:09.343Z,7.90
2023-03-21T06:55:09.616Z,9.30
2023-03-21T06:56:09.881Z,9.40
2023-03-21T06:57:10.146Z,8.40
2023-03-21T06:58:10.397Z,8.60
2023-03-21T06:59:10.656Z,9.20
2023-03-21T07:00:10.900Z,9.20
2023-03-21T07:01:11.203Z,10.50
2023-03-21T07:02:11.592Z,9.90
2023-03-21T07:03:11.734Z,10.20
2023-03-21T07:04:12.012Z,10.90
2023-03-21T07:05:12.282Z,10.20
2023-03-21T07:06:12.570Z,9.90
2023-03-21T07:07:12.841Z,10.40
2023-03-21T07:08:13.133Z,11.40
2023-03-21T07:09:13.424Z,10.20
2023-03-21T07:10:13.705Z,10.70
2023-03-21T07:11:14.004Z,10.50
2023-03-21T07:12:15.087Z,11.00
2023-03-21T07:13:14.594Z,10.80
2023-03-21T07:14:14.865Z,11.50
2023-03-21T07:15:15.163Z,12.30
2023-03-21T07:16:15.509Z,12.00
2023-03-21T07:17:15.686Z,11.90
2023-03-21T07:18:16.021Z,11.10
2023-03-21T07:19:16.588Z,11.90
2023-03-21T07:20:16.608Z,11.30
2023-03-21T07:21:16.956Z,11.50
2023-03-21T07:22:17.144Z,11.60
2023-03-21T07:23:17.422Z,11.20
2023-03-21T07:24:17.720Z,12.00
2023-03-21T07:25:18.034Z,12.10
2023-03-21T07:26:18.412Z,11.80
2023-03-21T07:27:18.606Z,11.80
2023-03-21T07:28:18.909Z,12.50
2023-03-21T07:29:19.190Z,11.90
2023-03-21T07:30:19.474Z,12.90
2023-03-21T07:31:19.863Z,12.90
2023-03-21T07:32:20.031Z,12.60
2023-03-21T07:33:20.332Z,12.70
2023-03-21T07:34:20.625Z,13.00
2023-03-21T07:35:21.490Z,12.80
2023-03-21T07:36:21.227Z,12.80
2023-03-21T07:37:21.521Z,12.10
2023-03-21T07:38:21.825Z,12.20
2023-03-21T07:39:22.133Z,12.70
2023-03-21T07:40:22.416Z,12.50
2023-03-21T07:41:22.749Z,12.40
2023-03-21T07:42:23.035Z,12.80
2023-03-21T07:43:23.328Z,13.70
2023-03-21T07:44:23.617Z,14.00
2023-03-21T07:45:23.915Z,13.70
2023-03-21T07:46:24.226Z,13.80
2023-03-21T07:47:24.531Z,13.70
2023-03-21T07:48:24.833Z,13.70
2023-03-21T07:49:25.112Z,14.20
2023-03-21T07:50:25.421Z,13.80
2023-03-21T07:51:25.725Z,13.30
2023-03-21T07:52:26.036Z,14.90
2023-03-21T07:53:26.322Z,14.50
2023-03-21T07:54:26.618Z,14.90
2023-03-21T07:55:26.896Z,15.20
2023-03-21T07:56:27.345Z,14.90
2023-03-21T07:57:27.467Z,14.70
2023-03-21T07:58:27.748Z,13.90
2023-03-21T07:59:28.079Z,15.60
2023-03-21T08:00:28.406Z,15.70
2023-03-21T08:01:28.701Z,14.20
2023-03-21T08:02:28.992Z,14.80
2023-03-21T08:03:29.298Z,14.80
2023-03-21T08:04:29.534Z,15.20
2023-03-21T08:05:29.854Z,15.10
2023-03-21T08:06:30.141Z,15.80
2023-03-21T08:07:30.428Z,16.60
2023-03-21T08:08:30.728Z,15.40
2023-03-21T08:09:31.295Z,16.30
2023-03-21T08:10:31.251Z,16.20
2023-03-21T08:11:31.585Z,15.30
2023-03-21T08:12:31.868Z,16.30
2023-03-21T08:13:32.169Z,16.50
2023-03-21T08:14:32.440Z,17.10
2023-03-21T08:15:32.779Z,16.10
2023-03-21T08:16:33.126Z,17.00
2023-03-21T08:17:33.401Z,17.30
2023-03-21T08:18:33.705Z,17.20
2023-03-21T08:19:34.003Z,18.20
2023-03-21T08:20:34.298Z,17.90
2023-03-21T08:21:34.606Z,18.40
2023-03-21T08:22:34.894Z,18.40
2023-03-21T08:23:35.204Z,17.60
2023-03-21T08:24:35.493Z,18.80
2023-03-21T08:25:35.989Z,18.50
2023-03-21T08:26:36.056Z,18.30
2023-03-21T08:27:36.356Z,19.00
2023-03-21T08:28:36.650Z,18.10
2023-03-21T08:29:37.692Z,18.90
2023-03-21T08:30:37.222Z,18.20
2023-03-21T08:31:37.550Z,18.40
2023-03-21T08:32:37.840Z,18.90
2023-03-21T08:33:38.134Z,17.80
2023-03-21T08:34:38.386Z,19.10
2023-03-21T08:35:41.061Z,18.50
2023-03-21T08:36:38.990Z,19.10
2023-03-21T08:37:39.289Z,19.10
2023-03-21T08:38:39.588Z,19.90
2023-03-21T08:39:39.975Z,18.60
2023-03-21T08:40:40.142Z,19.00
2023-03-21T08:41:40.450Z,19.00
2023-03-21T08:42:40.722Z,18.60
2023-03-21T08:43:41.024Z,17.80
2023-03-21T08:44:41.307Z,18.80
2023-03-21T08:45:41.613Z,18.70
2023-03-21T08:46:41.963Z,20.10
2023-03-21T08:47:42.296Z,18.40
2023-03-21T08:48:42.562Z,18.00
2023-03-21T08:49:42.853Z,19.60
2023-03-21T08:50:43.123Z,18.80
2023-03-21T08:51:43.441Z,18.80
2023-03-21T08:52:44.716Z,18.50
2023-03-21T08:53:44.054Z,19.50
2023-03-21T08:54:44.336Z,17.20
2023-03-21T08:55:44.641Z,19.10
2023-03-21T08:56:44.940Z,19.20
2023-03-21T08:57:45.258Z,18.20
2023-03-21T08:58:45.556Z,18.60
2023-03-21T08:59:45.848Z,17.70
2023-03-21T09:00:46.138Z,17.90
2023-03-21T09:01:47.213Z,17.90
2023-03-21T09:02:46.702Z,17.30
2023-03-21T09:03:47.040Z,18.20
2023-03-21T09:04:47.399Z,18.40
2023-03-21T09:05:47.568Z,17.20
2023-03-21T09:06:47.881Z,18.40
2023-03-21T09:07:48.282Z,16.50
2023-03-21T09:08:48.484Z,17.10
2023-03-21T09:09:58.134Z,17.00
2023-03-21T09:10:50.036Z,14.30
2023-03-21T09:11:51.504Z,12.70
2023-03-21T09:12:49.544Z,13.00
2023-03-21T09:13:49.843Z,13.40
2023-03-21T09:14:50.151Z,14.80
2023-03-21T09:15:50.460Z,13.30
2023-03-21T09:16:50.732Z,14.40
2023-03-21T09:17:51.034Z,13.80
2023-03-21T09:18:51.334Z,13.20
2023-03-21T09:19:51.628Z,13.30
2023-03-21T09:20:51.945Z,13.40
2023-03-21T09:21:52.667Z,12.90
2023-03-21T09:22:52.560Z,13.30
2023-03-21T09:23:52.894Z,14.20
2023-03-21T09:24:53.089Z,13.30
2023-03-21T09:25:53.390Z,14.60
2023-03-21T09:26:53.703Z,13.90
2023-03-21T09:27:53.990Z,14.30
2023-03-21T09:28:54.357Z,13.40
2023-03-21T09:29:54.617Z,14.80
2023-03-21T09:30:54.950Z,13.20
2023-03-21T09:31:55.280Z,12.90
2023-03-21T09:32:55.777Z,13.50
2023-03-21T09:33:55.878Z,14.00
2023-03-21T09:34:57.015Z,13.50
2023-03-21T09:35:56.540Z,13.40
2023-03-21T09:36:56.851Z,13.70
2023-03-21T09:37:57.185Z,13.90
2023-03-21T09:38:57.480Z,13.80
2023-03-21T09:39:57.779Z,13.80
2023-03-21T09:40:58.096Z,14.20
2023-03-21T09:41:58.446Z,14.00
2023-03-21T09:42:58.612Z,14.00
2023-03-21T09:43:58.912Z,13.70
2023-03-21T09:44:59.229Z,13.90
2023-03-21T09:45:59.497Z,14.20
2023-03-21T09:46:59.874Z,12.50
2023-03-21T09:48:00.130Z,12.70
2023-03-21T09:49:00.296Z,13.50
2023-03-21T09:50:13.144Z,12.70
2023-03-21T09:51:01.853Z,13.70
2023-03-21T09:52:01.206Z,12.80
2023-03-21T09:53:01.509Z,13.30
2023-03-21T09:54:01.789Z,14.60
2023-03-21T09:55:02.086Z,13.50
2023-03-21T09:56:02.403Z,14.50
2023-03-21T09:57:02.686Z,14.20
2023-03-21T09:58:02.978Z,13.80
2023-03-21T09:59:03.264Z,15.00
2023-03-21T10:00:03.556Z,13.60
2023-03-21T10:01:03.907Z,13.50
2023-03-21T10:02:04.116Z,13.80
2023-03-21T10:03:04.411Z,13.10
2023-03-21T10:04:12.263Z,13.90
2023-03-21T10:05:05.009Z,13.20
2023-03-21T10:06:05.271Z,13.10
2023-03-21T10:07:06.287Z,12.70
2023-03-21T10:08:06.610Z,13.70
2023-03-21T10:09:06.240Z,15.10
2023-03-21T10:10:06.400Z,14.30
2023-03-21T10:11:06.714Z,14.40
2023-03-21T10:12:06.995Z,15.50
2023-03-21T10:13:07.306Z,14.20
2023-03-21T10:14:07.615Z,15.30
2023-03-21T10:15:07.889Z,15.70
2023-03-21T10:16:08.271Z,16.20
2023-03-21T10:17:08.469Z,15.40
2023-03-21T10:18:08.768Z,16.50
2023-03-21T10:19:09.283Z,16.00
2023-03-21T10:20:11.572Z,15.40
2023-03-21T10:21:09.662Z,16.10
2023-03-21T10:22:09.962Z,15.90
2023-03-21T10:23:11.019Z,15.10
2023-03-21T10:24:10.542Z,15.20
2023-03-21T10:25:10.821Z,14.70
2023-03-21T10:26:14.755Z,14.90
2023-03-21T10:27:12.451Z,14.60
2023-03-21T10:28:12.426Z,15.90
2023-03-21T10:29:11.969Z,14.40
2023-03-21T10:30:12.253Z,16.00
2023-03-21T10:31:12.608Z,15.10
2023-03-21T10:32:12.805Z,14.90
2023-03-21T10:33:13.138Z,14.50
2023-03-21T10:34:13.408Z,13.70
2023-03-21T10:35:13.869Z,14.60
2023-03-21T10:36:14.119Z,14.50
2023-03-21T10:37:14.297Z,13.80
2023-03-21T10:38:14.596Z,13.50
2023-03-21T10:39:14.900Z,13.30
2023-03-21T10:40:15.193Z,14.30
2023-03-21T10:41:15.540Z,13.60
2023-03-21T10:42:15.770Z,14.10
2023-03-21T10:43:16.061Z,14.00
2023-03-21T10:44:16.367Z,13.50
2023-03-21T10:45:16.682Z,13.20
2023-03-21T10:46:17.859Z,14.10
2023-03-21T10:47:17.492Z,13.10
2023-03-21T10:48:17.686Z,13.50
2023-03-21T10:49:17.849Z,14.30
2023-03-21T10:50:18.213Z,14.30
2023-03-21T10:51:18.496Z,13.20
2023-03-21T10:52:18.797Z,14.00
2023-03-21T10:53:19.208Z,14.30
2023-03-21T10:54:19.327Z,14.30
2023-03-21T10:55:19.649Z,15.70
2023-03-21T10:56:19.972Z,15.90
2023-03-21T10:57:20.305Z,16.70
2023-03-21T10:58:20.601Z,18.20
2023-03-21T10:59:20.914Z,17.30
2023-03-21T11:00:21.203Z,15.60
2023-03-21T11:01:21.546Z,15.40
2023-03-21T11:02:21.815Z,15.00
2023-03-21T11:03:22.161Z,14.70
2023-03-21T11:04:22.276Z,15.00
2023-03-21T11:05:22.564Z,14.40
2023-03-21T11:06:22.869Z,13.50
2023-03-21T11:07:23.178Z,14.80
2023-03-21T11:08:23.467Z,14.20
2023-03-21T11:09:23.765Z,15.00
2023-03-21T11:10:28.797Z,14.80
2023-03-21T11:11:25.338Z,14.50
2023-03-21T11:12:24.555Z,15.10
2023-03-21T11:13:24.839Z,15.40
2023-03-21T11:14:25.139Z,15.10
2023-03-21T11:15:25.438Z,14.60
2023-03-21T11:16:25.816Z,15.10
2023-03-21T11:17:26.050Z,14.80
2023-03-21T11:18:26.348Z,14.40
2023-03-21T11:19:26.681Z,13.40
2023-03-21T11:20:27.011Z,14.00
2023-03-21T11:21:27.289Z,14.60
2023-03-21T11:22:27.669Z,14.90
2023-03-21T11:23:27.852Z,15.10
2023-03-21T11:24:28.196Z,16.10
2023-03-21T11:25:28.474Z,14.70
2023-03-21T11:26:28.818Z,14.70
2023-03-21T11:27:29.122Z,14.70
2023-03-21T11:28:29.425Z,14.80
2023-03-21T11:29:29.754Z,13.30
2023-03-21T11:30:30.137Z,12.80
2023-03-21T11:31:30.343Z,13.60
2023-03-21T11:32:30.666Z,13.40
2023-03-21T11:33:30.966Z,13.70
2023-03-21T11:34:31.261Z,13.60
2023-03-21T11:35:31.571Z,13.60
2023-03-21T11:36:31.894Z,12.90
2023-03-21T11:37:32.230Z,12.50
2023-03-21T11:38:32.429Z,11.70
2023-03-21T11:39:32.712Z,13.30
2023-03-21T11:40:33.019Z,12.20
2023-03-21T11:41:33.351Z,12.20
2023-03-21T11:42:33.664Z,13.70
2023-03-21T11:43:33.952Z,13.50
2023-03-21T11:44:34.219Z,11.60
2023-03-21T11:45:34.512Z,11.20
2023-03-21T11:46:34.882Z,12.00
2023-03-21T11:47:35.058Z,11.70
2023-03-21T11:48:35.331Z,11.90
2023-03-21T11:49:35.624Z,12.20
2023-03-21T11:50:35.935Z,11.50
2023-03-21T11:51:36.221Z,11.80
2023-03-21T11:52:36.576Z,13.30
2023-03-21T11:53:36.757Z,11.80
2023-03-21T11:54:37.074Z,12.50
2023-03-21T11:55:37.610Z,12.40
2023-03-21T11:56:37.710Z,13.60
2023-03-21T11:57:38.034Z,12.30
2023-03-21T11:58:38.403Z,11.70
2023-03-21T11:59:38.650Z,10.40
2023-03-21T12:00:38.915Z,11.50
2023-03-21T12:01:39.214Z,11.50
2023-03-21T12:02:39.581Z,11.80
2023-03-21T12:03:47.620Z,11.80
2023-03-21T12:04:41.074Z,11.80
2023-03-21T12:05:40.597Z,11.00
2023-03-21T12:06:40.589Z,10.80
2023-03-21T12:07:40.923Z,11.20
2023-03-21T12:08:41.229Z,11.80
2023-03-21T12:09:41.531Z,12.00
2023-03-21T12:10:41.881Z,10.50
2023-03-21T12:11:42.140Z,10.80
2023-03-21T12:12:42.464Z,12.10
2023-03-21T12:13:42.753Z,11.70
2023-03-21T12:14:43.047Z,12.20
2023-03-21T12:15:43.402Z,11.80
2023-03-21T12:16:43.683Z,12.10
2023-03-21T12:17:43.875Z,11.50
2023-03-21T12:18:44.158Z,12.30
2023-03-21T12:19:44.458Z,11.90
2023-03-21T12:20:44.740Z,10.90
2023-03-21T12:21:45.011Z,10.50
2023-03-21T12:22:45.297Z,11.50
2023-03-21T12:23:45.590Z,12.60
2023-03-21T12:24:45.905Z,11.90
2023-03-21T12:25:46.207Z,11.50
2023-03-21T12:26:46.529Z,12.50
2023-03-21T12:27:46.880Z,12.10
2023-03-21T12:28:47.046Z,11.80
2023-03-21T12:29:47.335Z,11.80
2023-03-21T12:30:47.677Z,11.50
2023-03-21T12:31:48.128Z,12.50
2023-03-21T12:32:48.277Z,11.70
2023-03-21T12:33:48.586Z,12.20
2023-03-21T12:34:48.903Z,12.20
2023-03-21T12:35:49.199Z,11.40
2023-03-21T12:36:49.506Z,12.30
2023-03-21T12:37:51.475Z,11.60
2023-03-21T12:38:50.081Z,11.80
2023-03-21T12:39:50.389Z,13.00
2023-03-21T12:40:50.666Z,12.20
2023-03-21T12:41:50.966Z,11.60
2023-03-21T12:42:51.268Z,11.50
2023-03-21T12:43:53.981Z,12.50
2023-03-21T12:44:51.834Z,12.20
2023-03-21T12:45:52.531Z,11.90
2023-03-21T12:46:52.400Z,11.60
2023-03-21T12:47:52.695Z,11.70
2023-03-21T12:48:52.896Z,11.60
2023-03-21T12:49:55.269Z,11.10
2023-03-21T12:50:53.484Z,12.20
2023-03-21T12:51:53.813Z,13.20
2023-03-21T12:52:54.140Z,12.20
2023-03-21T12:53:54.461Z,13.10
2023-03-21T12:54:54.757Z,11.50
2023-03-21T12:55:55.052Z,11.90
2023-03-21T12:56:55.365Z,12.00
2023-03-21T12:57:57.788Z,12.10
2023-03-21T12:58:55.942Z,11.40
2023-03-21T12:59:56.184Z,12.00
2023-03-21T13:00:56.518Z,11.80
2023-03-21T13:01:56.821Z,12.30
2023-03-21T13:02:57.114Z,12.10
2023-03-21T13:03:57.430Z,11.90
2023-03-21T13:05:00.048Z,12.00
2023-03-21T13:05:58.014Z,11.80
2023-03-21T13:06:58.306Z,12.30
2023-03-21T13:07:58.638Z,13.10
2023-03-21T13:08:58.921Z,12.30
2023-03-21T13:09:59.206Z,11.80
2023-03-21T13:11:00.862Z,12.30
2023-03-21T13:11:59.745Z,12.60
2023-03-21T13:13:00.115Z,12.30